Time;durP1;ratioP1;P1;durP2;ratioP2;P2;SDS_P1;SDS_P2;PMS_P1;PMS_P2;Temp;Humidity;BMP_temperature;BMP_pressure;BME280_temperature;BME280_humidity;BME280_pressure;Samples;Min_cycle;Max_cycle;Signal;HPM_P1;HPM_P2
2023/08/29 00:01:40;;;;;;;4.80;3.08;;;;;;;;;;5090846;28;20048;-64
2023/08/29 00:04:07;;;;;;;4.95;3.28;;;;;;;;;;5091025;28;20146;-64
2023/08/29 00:06:33;;;;;;;8.98;3.17;;;;;;;;;;5090572;28;20055;-64
2023/08/29 00:09:00;;;;;;;4.15;2.60;;;;;;;;;;5090941;28;20148;-64
2023/08/29 00:11:27;;;;;;;4.70;3.13;;;;;;;;;;5090456;28;20043;-64
2023/08/29 00:13:54;;;;;;;8.98;3.30;;;;;;;;;;5090772;28;20131;-64
2023/08/29 00:16:20;;;;;;;6.18;2.88;;;;;;;;;;5090883;28;20119;-64
2023/08/29 00:18:46;;;;;;;8.45;3.78;;;;;;;;;;5090839;28;20474;-64
2023/08/29 00:21:13;;;;;;;7.10;3.60;;;;;;;;;;5073194;28;20122;-64
2023/08/29 00:23:40;;;;;;;6.15;3.45;;;;;;;;;;5090111;28;20058;-64
2023/08/29 00:26:06;;;;;;;4.00;3.53;;;;;;;;;;5091026;28;20454;-64
2023/08/29 00:28:32;;;;;;;5.85;2.70;;;;;;;;;;5090142;28;20102;-64
2023/08/29 00:30:59;;;;;;;5.65;2.70;;;;;;;;;;5090828;28;20457;-63
2023/08/29 00:33:25;;;;;;;3.90;3.00;;;;;;;;;;5089808;28;20510;-64
2023/08/29 00:35:52;;;;;;;4.40;2.90;;;;;;;;;;5072903;28;20044;-64
2023/08/29 00:38:18;;;;;;;4.88;2.65;;;;;;;;;;5089737;28;20106;-64
2023/08/29 00:40:45;;;;;;;2.97;2.47;;;;;;;;;;5090988;28;20131;-64
2023/08/29 00:43:11;;;;;;;4.47;2.85;;;;;;;;;;5089520;28;20667;-63
2023/08/29 00:45:38;;;;;;;4.75;2.90;;;;;;;;;;5090543;28;20072;-64
2023/08/29 00:48:05;;;;;;;6.80;2.83;;;;;;;;;;5090290;28;20060;-64
2023/08/29 00:50:33;;;;;;;3.05;2.30;;;;;;;;;;5090157;28;20052;-64
2023/08/29 00:53:01;;;;;;;3.72;2.67;;;;;;;;;;5090037;28;20046;-64
2023/08/29 00:55:28;;;;;;;7.32;4.15;;;;;;;;;;5090117;28;20067;-64
2023/08/29 00:57:59;;;;;;;5.47;3.25;;;;;;;;;;5090142;28;20135;-64
2023/08/29 01:00:27;;;;;;;3.70;2.90;;;;;;;;;;5081493;28;20085;-64
2023/08/29 01:02:53;;;;;;;7.35;3.17;;;;;;;;;;5085936;28;20033;-64
2023/08/29 01:05:23;;;;;;;4.72;3.58;;;;;;;;;;5074515;28;20106;-64
2023/08/29 01:07:53;;;;;;;9.70;4.10;;;;;;;;;;5082233;28;20127;-64
2023/08/29 01:10:21;;;;;;;4.85;3.22;;;;;;;;;;5088881;28;20040;-64
2023/08/29 01:12:55;;;;;;;5.82;2.63;;;;;;;;;;5084026;28;20050;-64
2023/08/29 01:15:23;;;;;;;4.10;2.90;;;;;;;;;;5090033;28;20082;-64
2023/08/29 01:17:53;;;;;;;8.23;3.10;;;;;;;;;;5089226;28;20040;-64
2023/08/29 01:20:21;;;;;;;4.60;2.55;;;;;;;;;;5090029;28;20043;-64
2023/08/29 01:22:54;;;;;;;3.38;2.33;;;;;;;;;;5088794;28;20066;-64
2023/08/29 01:25:45;;;;;;;5.07;2.90;;;;;;;;;;5090038;28;20052;-64
2023/08/29 01:28:12;;;;;;;5.53;3.30;;;;;;;;;;5089354;28;20040;-64
2023/08/29 01:30:39;;;;;;;6.95;3.83;;;;;;;;;;5089936;28;20121;-64
2023/08/29 01:33:07;;;;;;;7.10;3.05;;;;;;;;;;5088925;28;20119;-64
2023/08/29 01:35:34;;;;;;;6.20;3.58;;;;;;;;;;5089533;28;20047;-64
2023/08/29 01:38:00;;;;;;;6.45;2.88;;;;;;;;;;5088821;28;20492;-63
2023/08/29 01:40:27;;;;;;;8.30;3.10;;;;;;;;;;5089528;28;20078;-64
2023/08/29 01:42:53;;;;;;;6.55;3.05;;;;;;;;;;5089222;28;20091;-63
2023/08/29 01:45:20;;;;;;;5.70;2.80;;;;;;;;;;5088698;28;20037;-64
2023/08/29 01:47:46;;;;;;;5.82;3.55;;;;;;;;;;5088892;28;20070;-64
2023/08/29 01:50:13;;;;;;;4.38;2.70;;;;;;;;;;5089223;28;20656;-64
2023/08/29 01:52:40;;;;;;;10.30;3.95;;;;;;;;;;5088742;28;20155;-64
2023/08/29 01:55:07;;;;;;;5.22;2.60;;;;;;;;;;5088082;28;20116;-64
2023/08/29 01:57:35;;;;;;;9.85;3.78;;;;;;;;;;5089163;28;20128;-64
2023/08/29 02:00:02;;;;;;;3.85;3.00;;;;;;;;;;5088954;28;20129;-64
2023/08/29 02:02:29;;;;;;;10.35;3.60;;;;;;;;;;5087699;28;20706;-64
2023/08/29 02:04:55;;;;;;;7.82;3.13;;;;;;;;;;5088841;28;20387;-64
2023/08/29 02:07:22;;;;;;;4.28;2.92;;;;;;;;;;5088768;28;20101;-64
2023/08/29 02:09:48;;;;;;;8.88;2.80;;;;;;;;;;5087951;28;20048;-64
2023/08/29 02:12:14;;;;;;;4.53;2.85;;;;;;;;;;5088446;28;20086;-64
2023/08/29 02:14:41;;;;;;;4.65;3.35;;;;;;;;;;5088987;28;20132;-63
2023/08/29 02:17:07;;;;;;;6.15;2.97;;;;;;;;;;5087641;28;20715;-64
2023/08/29 02:19:34;;;;;;;4.15;3.08;;;;;;;;;;5087878;28;20488;-63
2023/08/29 02:22:00;;;;;;;6.57;3.25;;;;;;;;;;5091401;28;20123;-64
2023/08/29 02:24:27;;;;;;;7.32;3.28;;;;;;;;;;5093144;28;20625;-64
2023/08/29 02:26:54;;;;;;;6.07;3.08;;;;;;;;;;5092698;28;20032;-64
2023/08/29 02:29:20;;;;;;;7.38;3.30;;;;;;;;;;5092859;28;20489;-64
2023/08/29 02:31:47;;;;;;;9.38;3.13;;;;;;;;;;5092602;28;20079;-64
2023/08/29 02:34:13;;;;;;;4.43;3.30;;;;;;;;;;5093400;28;20044;-64
2023/08/29 02:36:40;;;;;;;6.80;3.50;;;;;;;;;;5092439;28;20068;-64
2023/08/29 02:39:07;;;;;;;7.72;3.75;;;;;;;;;;5092853;28;20109;-64
2023/08/29 02:41:34;;;;;;;5.65;3.22;;;;;;;;;;5092183;28;20075;-64
2023/08/29 02:44:00;;;;;;;6.28;3.25;;;;;;;;;;5092814;28;20380;-64
2023/08/29 02:46:26;;;;;;;8.35;2.88;;;;;;;;;;5091597;28;20571;-64
2023/08/29 02:48:53;;;;;;;9.60;3.28;;;;;;;;;;5087524;28;20046;-64
2023/08/29 02:51:19;;;;;;;4.38;3.00;;;;;;;;;;5072517;28;20062;-64
2023/08/29 02:53:46;;;;;;;5.47;2.70;;;;;;;;;;5079517;28;20123;-64
2023/08/29 02:56:12;;;;;;;5.53;2.90;;;;;;;;;;5092521;28;20459;-64
2023/08/29 02:58:39;;;;;;;7.13;2.80;;;;;;;;;;5096544;28;20575;-64
2023/08/29 03:01:11;;;;;;;6.82;2.40;;;;;;;;;;5097604;28;20050;-64
2023/08/29 03:03:37;;;;;;;4.25;2.38;;;;;;;;;;5094387;28;20067;-63
2023/08/29 03:06:04;;;;;;;8.93;2.55;;;;;;;;;;5092478;28;20048;-64
2023/08/29 03:08:30;;;;;;;3.85;2.25;;;;;;;;;;5091899;28;20071;-64
2023/08/29 03:11:01;;;;;;;3.58;2.22;;;;;;;;;;5092361;28;20075;-63
2023/08/29 03:13:27;;;;;;;10.20;3.03;;;;;;;;;;5091808;28;20076;-64
2023/08/29 03:15:54;;;;;;;6.15;2.50;;;;;;;;;;5092205;28;20751;-64
2023/08/29 03:18:20;;;;;;;4.28;3.08;;;;;;;;;;5091831;28;20044;-64
2023/08/29 03:20:47;;;;;;;4.75;2.45;;;;;;;;;;5092096;28;20093;-64
2023/08/29 03:23:13;;;;;;;4.63;2.85;;;;;;;;;;5092033;28;20769;-63
2023/08/29 03:25:40;;;;;;;5.13;2.67;;;;;;;;;;5073713;28;20083;-64
2023/08/29 03:28:06;;;;;;;5.28;1.92;;;;;;;;;;5091807;28;20481;-63
2023/08/29 03:30:33;;;;;;;5.40;2.28;;;;;;;;;;5091923;28;20127;-64
2023/08/29 03:33:00;;;;;;;4.47;2.35;;;;;;;;;;5089701;28;20051;-64
2023/08/29 03:35:27;;;;;;;3.25;2.00;;;;;;;;;;5091466;28;20127;-64
2023/08/29 03:37:53;;;;;;;3.45;2.15;;;;;;;;;;5091554;28;20129;-64
2023/08/29 03:40:19;;;;;;;4.45;2.40;;;;;;;;;;5091426;28;20494;-64
2023/08/29 03:42:46;;;;;;;3.40;2.60;;;;;;;;;;5091298;28;20361;-64
2023/08/29 03:45:12;;;;;;;5.57;2.38;;;;;;;;;;5091214;28;20135;-63
2023/08/29 03:47:39;;;;;;;3.13;2.22;;;;;;;;;;5089818;28;20068;-64
2023/08/29 03:50:06;;;;;;;5.15;2.28;;;;;;;;;;5091512;28;20040;-64
2023/08/29 03:52:32;;;;;;;4.18;2.10;;;;;;;;;;5090975;28;20151;-64
2023/08/29 03:54:59;;;;;;;3.63;1.70;;;;;;;;;;5073493;28;20055;-63
2023/08/29 03:57:28;;;;;;;4.28;2.13;;;;;;;;;;5091313;28;20040;-63
2023/08/29 03:59:55;;;;;;;3.13;1.75;;;;;;;;;;5091751;28;20458;-64
2023/08/29 04:02:22;;;;;;;4.30;2.33;;;;;;;;;;5091303;28;20044;-64
2023/08/29 04:04:50;;;;;;;3.67;1.98;;;;;;;;;;5091205;28;20048;-64
2023/08/29 04:07:16;;;;;;;3.97;2.05;;;;;;;;;;5090536;28;20093;-64
2023/08/29 04:09:43;;;;;;;4.75;1.75;;;;;;;;;;5091423;28;20097;-64
2023/08/29 04:12:10;;;;;;;3.47;2.05;;;;;;;;;;5090811;28;20553;-64
2023/08/29 04:14:37;;;;;;;10.25;1.92;;;;;;;;;;5091893;28;20043;-64
2023/08/29 04:17:03;;;;;;;4.50;1.88;;;;;;;;;;5090409;28;20371;-65
2023/08/29 04:19:30;;;;;;;3.33;1.98;;;;;;;;;;5091171;28;20093;-68
2023/08/29 04:21:56;;;;;;;3.60;1.95;;;;;;;;;;5072312;28;20271;-63
2023/08/29 04:24:23;;;;;;;4.40;1.73;;;;;;;;;;5090934;28;20052;-63
2023/08/29 04:26:49;;;;;;;4.10;2.17;;;;;;;;;;5090466;28;20040;-63
2023/08/29 04:29:16;;;;;;;3.10;1.80;;;;;;;;;;5090777;28;20040;-63
2023/08/29 04:31:43;;;;;;;5.38;1.98;;;;;;;;;;5090465;28;20575;-63
2023/08/29 04:34:10;;;;;;;4.90;1.83;;;;;;;;;;5089982;28;20055;-64
2023/08/29 04:36:36;;;;;;;3.92;1.92;;;;;;;;;;5090176;28;20080;-63
2023/08/29 04:39:02;;;;;;;4.25;2.20;;;;;;;;;;5090296;28;20384;-63
2023/08/29 04:41:29;;;;;;;6.75;2.15;;;;;;;;;;5090802;28;20040;-64
2023/08/29 04:43:55;;;;;;;5.47;2.00;;;;;;;;;;5071627;28;20044;-64
2023/08/29 04:46:22;;;;;;;3.58;1.58;;;;;;;;;;5089729;28;20503;-64
2023/08/29 04:48:48;;;;;;;6.22;1.70;;;;;;;;;;5090423;28;20131;-64
2023/08/29 04:51:15;;;;;;;4.65;1.85;;;;;;;;;;5090085;28;20101;-66
2023/08/29 04:53:41;;;;;;;5.82;1.85;;;;;;;;;;5071895;28;20082;-64
2023/08/29 04:56:07;;;;;;;2.58;1.52;;;;;;;;;;5090344;28;20152;-64
2023/08/29 04:58:34;;;;;;;3.75;1.70;;;;;;;;;;5089850;28;20130;-63
2023/08/29 05:01:00;;;;;;;3.88;1.77;;;;;;;;;;5089911;28;20051;-65
2023/08/29 05:03:27;;;;;;;3.65;2.17;;;;;;;;;;5089495;28;20547;-65
2023/08/29 05:05:54;;;;;;;5.50;2.20;;;;;;;;;;5090072;28;20109;-65
2023/08/29 05:08:21;;;;;;;4.78;2.60;;;;;;;;;;5089949;28;20044;-64
2023/08/29 05:10:47;;;;;;;3.65;1.77;;;;;;;;;;5089817;28;20491;-65
2023/08/29 05:13:13;;;;;;;3.50;2.00;;;;;;;;;;5089515;28;20129;-64
2023/08/29 05:15:41;;;;;;;3.10;1.85;;;;;;;;;;5090163;28;20131;-65
2023/08/29 05:18:08;;;;;;;5.18;1.88;;;;;;;;;;5089359;28;20054;-64
2023/08/29 05:20:36;;;;;;;4.38;2.13;;;;;;;;;;5089592;28;20127;-65
2023/08/29 05:23:02;;;;;;;4.05;2.10;;;;;;;;;;5089021;28;20403;-65
2023/08/29 05:25:29;;;;;;;2.55;1.52;;;;;;;;;;5089609;28;20444;-65
2023/08/29 05:27:55;;;;;;;8.90;1.92;;;;;;;;;;5089259;28;20072;-63
2023/08/29 05:30:22;;;;;;;4.88;1.95;;;;;;;;;;5089395;28;20510;-63
2023/08/29 05:32:48;;;;;;;5.50;2.65;;;;;;;;;;5090100;28;20048;-64
2023/08/29 05:35:15;;;;;;;6.80;2.35;;;;;;;;;;5089886;28;20052;-63
2023/08/29 05:37:41;;;;;;;8.45;2.03;;;;;;;;;;5089132;28;20145;-63
2023/08/29 05:40:08;;;;;;;4.15;1.67;;;;;;;;;;5089748;28;20048;-64
2023/08/29 05:42:35;;;;;;;4.72;2.40;;;;;;;;;;5089060;28;20130;-64
2023/08/29 05:45:02;;;;;;;8.82;1.90;;;;;;;;;;5089895;28;20127;-64
2023/08/29 05:47:28;;;;;;;7.28;2.20;;;;;;;;;;5088830;28;20036;-63
2023/08/29 05:49:54;;;;;;;4.53;2.05;;;;;;;;;;5089649;28;20036;-63
2023/08/29 05:52:21;;;;;;;4.53;2.35;;;;;;;;;;5089077;28;20040;-64
2023/08/29 05:54:47;;;;;;;5.80;2.58;;;;;;;;;;5089239;28;20097;-64
2023/08/29 05:57:14;;;;;;;7.65;2.15;;;;;;;;;;5089457;28;20040;-64
2023/08/29 05:59:40;;;;;;;4.10;2.00;;;;;;;;;;5091576;28;20044;-64
2023/08/29 06:02:07;;;;;;;6.97;2.30;;;;;;;;;;5088921;28;20044;-64
2023/08/29 06:04:33;;;;;;;5.15;2.25;;;;;;;;;;5089117;28;20048;-64
2023/08/29 06:07:01;;;;;;;5.03;2.47;;;;;;;;;;5088547;28;20040;-64
2023/08/29 06:09:27;;;;;;;3.20;2.20;;;;;;;;;;5088870;28;20117;-64
2023/08/29 06:11:53;;;;;;;5.93;2.25;;;;;;;;;;5088793;28;20071;-64
2023/08/29 06:14:20;;;;;;;4.95;2.13;;;;;;;;;;5089049;28;20131;-64
2023/08/29 06:16:46;;;;;;;6.15;2.15;;;;;;;;;;5089031;28;20067;-65
2023/08/29 06:19:13;;;;;;;5.22;2.60;;;;;;;;;;5088592;28;20044;-64
2023/08/29 06:21:39;;;;;;;5.15;2.00;;;;;;;;;;5089036;28;20083;-64
2023/08/29 06:24:06;;;;;;;9.13;2.53;;;;;;;;;;5088745;28;20053;-64
2023/08/29 06:26:32;;;;;;;4.30;2.10;;;;;;;;;;5087988;28;20422;-68
2023/08/29 06:28:59;;;;;;;6.25;2.63;;;;;;;;;;5088642;28;20135;-66
2023/08/29 06:31:25;;;;;;;7.47;2.70;;;;;;;;;;5088487;28;20130;-67
2023/08/29 06:33:52;;;;;;;12.50;2.90;;;;;;;;;;5089070;28;20051;-66
2023/08/29 06:36:18;;;;;;;3.80;2.15;;;;;;;;;;5088511;28;20036;-67
2023/08/29 06:38:44;;;;;;;3.78;2.22;;;;;;;;;;5071389;28;20075;-65
2023/08/29 06:41:11;;;;;;;5.05;2.92;;;;;;;;;;5088880;28;20632;-65
2023/08/29 06:43:37;;;;;;;4.45;2.40;;;;;;;;;;5088359;28;20068;-65
2023/08/29 06:46:04;;;;;;;4.97;2.30;;;;;;;;;;5088261;28;20528;-66
2023/08/29 06:48:30;;;;;;;3.60;2.50;;;;;;;;;;5088670;28;20036;-66
2023/08/29 06:50:57;;;;;;;5.07;2.65;;;;;;;;;;5070156;28;20044;-66
2023/08/29 06:53:26;;;;;;;6.93;2.83;;;;;;;;;;5088394;28;20459;-67
2023/08/29 06:55:52;;;;;;;5.63;3.00;;;;;;;;;;5088298;28;20131;-67
2023/08/29 06:58:18;;;;;;;5.53;2.63;;;;;;;;;;5088285;28;20071;-68
2023/08/29 07:00:45;;;;;;;4.60;2.40;;;;;;;;;;5087996;28;20072;-70
2023/08/29 07:03:12;;;;;;;5.80;2.60;;;;;;;;;;5087792;28;20055;-65
2023/08/29 07:05:39;;;;;;;6.32;2.90;;;;;;;;;;5087415;28;20040;-72
2023/08/29 07:08:06;;;;;;;4.88;2.85;;;;;;;;;;5088252;28;20119;-69
2023/08/29 07:10:33;;;;;;;7.45;2.78;;;;;;;;;;5090953;28;20126;-67
2023/08/29 07:13:00;;;;;;;5.53;2.75;;;;;;;;;;5090552;28;20122;-68
2023/08/29 07:15:26;;;;;;;4.18;2.53;;;;;;;;;;5090362;28;20048;-70
2023/08/29 07:17:53;;;;;;;8.95;2.25;;;;;;;;;;5090084;28;20036;-70
2023/08/29 07:20:20;;;;;;;3.80;2.33;;;;;;;;;;5087953;28;20043;-69
2023/08/29 07:22:47;;;;;;;6.25;2.72;;;;;;;;;;5085680;28;20043;-67
2023/08/29 07:25:14;;;;;;;5.10;2.42;;;;;;;;;;5088678;28;21600;-66
2023/08/29 07:27:41;;;;;;;8.93;2.83;;;;;;;;;;5077202;28;20125;-67
2023/08/29 07:30:08;;;;;;;7.68;2.92;;;;;;;;;;5089388;28;20048;-65
2023/08/29 07:32:34;;;;;;;3.85;2.53;;;;;;;;;;5077153;28;20166;-67
2023/08/29 07:35:02;;;;;;;7.18;3.17;;;;;;;;;;5098994;28;20047;-65
2023/08/29 07:37:29;;;;;;;3.72;2.70;;;;;;;;;;5095931;28;20040;-66
2023/08/29 07:39:55;;;;;;;9.10;2.88;;;;;;;;;;5094921;28;20040;-65
2023/08/29 07:42:22;;;;;;;4.45;2.97;;;;;;;;;;5096860;28;20127;-64
2023/08/29 07:44:48;;;;;;;6.55;2.92;;;;;;;;;;5094381;28;20728;-65
2023/08/29 07:47:14;;;;;;;6.60;3.65;;;;;;;;;;5095679;28;20046;-65
2023/08/29 07:49:42;;;;;;;13.00;3.40;;;;;;;;;;5093686;28;20039;-66
2023/08/29 07:52:08;;;;;;;5.13;3.45;;;;;;;;;;5094928;28;20075;-65
2023/08/29 07:54:35;;;;;;;10.65;3.25;;;;;;;;;;5091217;28;20064;-65
2023/08/29 07:57:01;;;;;;;7.18;3.00;;;;;;;;;;5095602;28;20063;-65
2023/08/29 07:59:28;;;;;;;6.32;3.30;;;;;;;;;;5093734;28;20054;-65
2023/08/29 08:01:54;;;;;;;6.68;3.28;;;;;;;;;;5092950;28;20118;-65
2023/08/29 08:04:21;;;;;;;7.97;3.63;;;;;;;;;;5091879;28;20055;-65
2023/08/29 08:06:47;;;;;;;6.93;3.47;;;;;;;;;;5091077;28;20048;-65
2023/08/29 08:09:14;;;;;;;7.55;3.30;;;;;;;;;;5095347;28;20055;-66
2023/08/29 08:11:41;;;;;;;8.40;3.17;;;;;;;;;;5094259;28;20127;-66
2023/08/29 08:14:07;;;;;;;6.45;3.72;;;;;;;;;;5092776;28;20036;-67
2023/08/29 08:16:34;;;;;;;6.50;3.90;;;;;;;;;;5095043;28;20047;-66
2023/08/29 08:19:00;;;;;;;10.20;3.88;;;;;;;;;;5096104;28;20036;-68
2023/08/29 08:21:26;;;;;;;7.93;3.63;;;;;;;;;;5095392;28;20139;-67
2023/08/29 08:23:53;;;;;;;28.27;4.18;;;;;;;;;;5096700;28;20044;-66
2023/08/29 08:26:19;;;;;;;7.82;4.15;;;;;;;;;;5095122;28;20086;-66
2023/08/29 08:28:46;;;;;;;7.90;3.88;;;;;;;;;;5092582;28;20119;-67
2023/08/29 08:31:12;;;;;;;10.10;4.47;;;;;;;;;;5096532;28;20140;-66
2023/08/29 08:33:40;;;;;;;7.93;4.32;;;;;;;;;;5095404;28;20043;-66
2023/08/29 08:36:07;;;;;;;9.18;4.43;;;;;;;;;;5094771;28;20098;-66
2023/08/29 08:38:34;;;;;;;8.88;4.32;;;;;;;;;;5073816;28;20036;-65
2023/08/29 08:41:00;;;;;;;6.28;3.80;;;;;;;;;;5096923;28;20039;-65
2023/08/29 08:43:28;;;;;;;11.30;5.80;;;;;;;;;;5076505;28;20043;-65
2023/08/29 08:45:55;;;;;;;6.78;4.57;;;;;;;;;;5091383;28;20122;-67
2023/08/29 08:48:22;;;;;;;14.20;5.85;;;;;;;;;;5093338;28;20039;-65
2023/08/29 08:50:49;;;;;;;6.53;4.72;;;;;;;;;;5093449;28;20093;-67
2023/08/29 08:53:18;;;;;;;13.18;4.95;;;;;;;;;;5095497;28;20660;-67
2023/08/29 08:55:45;;;;;;;16.45;4.88;;;;;;;;;;5093150;28;20136;-67
2023/08/29 08:58:11;;;;;;;10.13;5.10;;;;;;;;;;5097836;28;20048;-68
2023/08/29 09:00:37;;;;;;;7.80;4.90;;;;;;;;;;5097739;28;20036;-66
2023/08/29 09:03:04;;;;;;;11.15;4.90;;;;;;;;;;5093794;28;20042;-67
2023/08/29 09:05:31;;;;;;;9.75;4.90;;;;;;;;;;5095122;28;20044;-66
2023/08/29 09:07:59;;;;;;;9.95;5.07;;;;;;;;;;5092538;28;20036;-66
2023/08/29 09:10:31;;;;;;;7.32;5.32;;;;;;;;;;5071066;28;20044;-67
2023/08/29 09:12:57;;;;;;;9.73;4.50;;;;;;;;;;5092591;28;20124;-70
2023/08/29 09:15:25;;;;;;;7.28;4.47;;;;;;;;;;5095060;28;20079;-67
2023/08/29 09:17:53;;;;;;;6.88;4.57;;;;;;;;;;5091578;28;20043;-68
2023/08/29 09:20:20;;;;;;;9.00;5.90;;;;;;;;;;5095664;28;20361;-67
2023/08/29 09:22:47;;;;;;;6.03;5.25;;;;;;;;;;5075743;28;20047;-67
2023/08/29 09:25:14;;;;;;;9.73;4.35;;;;;;;;;;5090490;28;20118;-67
2023/08/29 09:27:42;;;;;;;10.98;5.28;;;;;;;;;;5075058;28;20046;-68
2023/08/29 09:30:12;;;;;;;7.22;4.50;;;;;;;;;;5093134;28;20113;-69
2023/08/29 09:32:43;;;;;;;7.93;4.40;;;;;;;;;;5092693;28;20122;-66
2023/08/29 09:35:11;;;;;;;7.78;4.25;;;;;;;;;;5094689;28;20455;-67
2023/08/29 09:37:40;;;;;;;7.75;4.38;;;;;;;;;;5077004;28;20063;-65
2023/08/29 09:40:07;;;;;;;5.57;3.67;;;;;;;;;;5093593;28;20210;-70
2023/08/29 09:42:54;;;;;;;7.95;4.18;;;;;;;;;;5091768;28;20059;-67
2023/08/29 09:45:21;;;;;;;5.28;3.50;;;;;;;;;;5095685;28;20109;-66
2023/08/29 09:47:51;;;;;;;8.18;3.13;;;;;;;;;;5094839;28;20040;-67
2023/08/29 09:50:18;;;;;;;3.95;3.47;;;;;;;;;;5094144;28;20048;-66
2023/08/29 09:52:45;;;;;;;10.00;3.78;;;;;;;;;;5090466;28;20139;-68
2023/08/29 09:55:13;;;;;;;8.77;3.80;;;;;;;;;;5093430;28;20054;-69
2023/08/29 09:57:39;;;;;;;11.13;3.80;;;;;;;;;;5090478;28;20075;-73
2023/08/29 10:00:09;;;;;;;6.75;2.78;;;;;;;;;;5091978;28;20040;-72
2023/08/29 10:02:36;;;;;;;5.13;3.20;;;;;;;;;;5088891;28;20419;-70
2023/08/29 10:05:06;;;;;;;5.55;3.70;;;;;;;;;;5089066;28;20395;-72
2023/08/29 10:07:37;;;;;;;3.55;2.85;;;;;;;;;;5090335;28;20434;-67
2023/08/29 10:10:06;;;;;;;6.05;3.30;;;;;;;;;;5092730;28;20134;-70
2023/08/29 10:12:33;;;;;;;5.93;3.92;;;;;;;;;;5089175;28;20044;-69
2023/08/29 10:15:00;;;;;;;6.13;2.90;;;;;;;;;;5091977;28;20142;-69
2023/08/29 10:17:26;;;;;;;5.97;2.85;;;;;;;;;;5092773;28;20043;-69
2023/08/29 10:20:13;;;;;;;5.03;3.05;;;;;;;;;;5075300;28;20052;-70
2023/08/29 10:22:48;;;;;;;8.38;4.22;;;;;;;;;;5095084;28;20476;-68
2023/08/29 10:25:15;;;;;;;5.47;3.60;;;;;;;;;;5093578;28;20108;-69
2023/08/29 10:27:42;;;;;;;7.03;4.05;;;;;;;;;;5093022;28;20039;-68
2023/08/29 10:30:09;;;;;;;8.55;3.53;;;;;;;;;;5094774;28;20083;-68
2023/08/29 10:32:37;;;;;;;4.53;3.50;;;;;;;;;;5094386;28;20056;-69
2023/08/29 10:35:03;;;;;;;8.00;3.60;;;;;;;;;;5088093;28;20047;-70
2023/08/29 10:37:30;;;;;;;5.45;3.67;;;;;;;;;;5087266;28;20155;-68
2023/08/29 10:40:12;;;;;;;7.50;3.75;;;;;;;;;;5089274;28;20795;-71
2023/08/29 10:42:48;;;;;;;5.07;3.63;;;;;;;;;;5072153;28;20391;-70
2023/08/29 10:45:14;;;;;;;10.77;5.45;;;;;;;;;;5090798;28;20176;-71
2023/08/29 10:47:47;;;;;;;5.70;4.05;;;;;;;;;;5092100;28;20727;-70
2023/08/29 10:50:18;;;;;;;8.52;4.13;;;;;;;;;;5097112;28;20046;-70
2023/08/29 10:52:44;;;;;;;5.38;3.10;;;;;;;;;;5090102;28;20559;-71
2023/08/29 10:55:19;;;;;;;6.10;3.22;;;;;;;;;;5096271;28;20052;-72
2023/08/29 10:57:46;;;;;;;3.97;3.13;;;;;;;;;;5092344;28;20395;-70
2023/08/29 11:00:32;;;;;;;7.38;3.22;;;;;;;;;;5095666;28;20586;-72
2023/08/29 11:03:00;;;;;;;5.93;2.95;;;;;;;;;;5095517;28;20484;-70
2023/08/29 11:05:27;;;;;;;5.35;3.92;;;;;;;;;;5093134;28;20061;-69
2023/08/29 11:08:13;;;;;;;5.55;2.95;;;;;;;;;;5094330;28;20134;-71
2023/08/29 11:10:40;;;;;;;3.65;2.67;;;;;;;;;;5095740;28;20337;-73
2023/08/29 11:13:06;;;;;;;3.38;2.55;;;;;;;;;;5075963;28;20191;-69
2023/08/29 11:15:51;;;;;;;7.15;2.85;;;;;;;;;;5095752;28;20054;-68
2023/08/29 11:18:22;;;;;;;6.22;3.00;;;;;;;;;;5093567;28;20044;-70
2023/08/29 11:20:48;;;;;;;3.22;2.65;;;;;;;;;;5095648;28;20036;-70
2023/08/29 11:23:14;;;;;;;6.68;2.88;;;;;;;;;;5093188;28;20051;-72
2023/08/29 11:25:42;;;;;;;10.63;2.92;;;;;;;;;;5096220;28;20040;-72
2023/08/29 11:28:08;;;;;;;8.35;3.05;;;;;;;;;;5097431;28;20048;-72
2023/08/29 11:30:35;;;;;;;16.27;3.38;;;;;;;;;;5097682;28;20047;-69
2023/08/29 11:33:10;;;;;;;5.53;2.75;;;;;;;;;;5091301;28;20140;-68
2023/08/29 11:35:36;;;;;;;3.35;2.50;;;;;;;;;;5093700;28;20052;-78
2023/08/29 11:38:04;;;;;;;8.80;2.83;;;;;;;;;;5093530;28;20498;-72
2023/08/29 11:40:32;;;;;;;4.47;2.95;;;;;;;;;;5097509;28;20194;-71
2023/08/29 11:43:09;;;;;;;15.15;4.80;;;;;;;;;;5095731;28;20050;-78
2023/08/29 11:45:59;;;;;;;4.50;2.70;;;;;;;;;;5092523;28;20035;-70
2023/08/29 11:48:26;;;;;;;6.45;2.97;;;;;;;;;;5093294;28;20048;-69
2023/08/29 11:50:53;;;;;;;7.10;2.92;;;;;;;;;;5096673;28;20044;-66
2023/08/29 11:53:20;;;;;;;8.20;3.38;;;;;;;;;;5090431;28;20056;-68
2023/08/29 11:55:47;;;;;;;9.77;3.30;;;;;;;;;;5094779;28;20052;-67
2023/08/29 11:58:14;;;;;;;4.75;3.55;;;;;;;;;;5094179;28;20582;-67
2023/08/29 12:00:40;;;;;;;5.05;3.25;;;;;;;;;;5092755;28;20115;-69
2023/08/29 12:03:07;;;;;;;4.93;3.30;;;;;;;;;;5093473;28;20059;-65
2023/08/29 12:05:33;;;;;;;5.30;3.50;;;;;;;;;;5093732;28;20484;-69
2023/08/29 12:08:00;;;;;;;6.13;3.30;;;;;;;;;;5090150;28;20358;-70
2023/08/29 12:10:27;;;;;;;8.55;3.45;;;;;;;;;;5095329;28;20060;-67
2023/08/29 12:12:53;;;;;;;6.15;3.55;;;;;;;;;;5090504;28;20043;-66
2023/08/29 12:15:33;;;;;;;6.03;3.10;;;;;;;;;;5094089;28;20048;-71
2023/08/29 12:18:03;;;;;;;6.03;3.53;;;;;;;;;;5091486;28;20141;-69
2023/08/29 12:20:33;;;;;;;9.57;3.50;;;;;;;;;;5094261;28;20048;-66
2023/08/29 12:23:00;;;;;;;5.70;3.97;;;;;;;;;;5094067;28;20048;-69
2023/08/29 12:25:26;;;;;;;5.05;4.00;;;;;;;;;;5095814;28;20130;-64
2023/08/29 12:27:53;;;;;;;6.18;4.03;;;;;;;;;;5095040;28;20362;-63
2023/08/29 12:30:20;;;;;;;6.60;4.65;;;;;;;;;;5096080;28;20075;-64
2023/08/29 12:32:47;;;;;;;4.32;3.63;;;;;;;;;;5096341;28;20082;-63
2023/08/29 12:35:15;;;;;;;8.32;4.05;;;;;;;;;;5093731;28;20268;-63
2023/08/29 12:37:41;;;;;;;8.48;4.40;;;;;;;;;;5091507;28;20079;-64
2023/08/29 12:40:08;;;;;;;5.13;4.53;;;;;;;;;;5097081;28;20134;-64
2023/08/29 12:42:36;;;;;;;6.57;4.15;;;;;;;;;;5095377;28;20051;-68
2023/08/29 12:45:04;;;;;;;6.43;4.28;;;;;;;;;;5091689;28;20052;-67
2023/08/29 12:47:30;;;;;;;7.03;4.30;;;;;;;;;;5091945;28;20040;-65
2023/08/29 12:49:57;;;;;;;8.00;4.70;;;;;;;;;;5088994;28;20143;-68
2023/08/29 12:52:24;;;;;;;9.18;5.80;;;;;;;;;;5093935;28;20032;-68
2023/08/29 12:54:51;;;;;;;5.10;3.75;;;;;;;;;;5074184;28;20044;-70
2023/08/29 12:57:17;;;;;;;4.57;2.00;;;;;;;;;;5073537;28;20066;-68
2023/08/29 12:59:45;;;;;;;2.13;1.40;;;;;;;;;;5093126;28;20055;-70
2023/08/29 13:02:11;;;;;;;3.97;1.40;;;;;;;;;;5093079;28;20036;-67
2023/08/29 13:04:38;;;;;;;2.67;1.23;;;;;;;;;;5093152;28;20071;-66
2023/08/29 13:07:05;;;;;;;3.50;1.10;;;;;;;;;;5075383;28;20083;-69
2023/08/29 13:09:31;;;;;;;3.47;1.40;;;;;;;;;;5095029;28;20043;-71
2023/08/29 13:12:04;;;;;;;2.83;1.33;;;;;;;;;;5094620;28;20139;-65
2023/08/29 13:14:31;;;;;;;4.88;1.77;;;;;;;;;;5094663;28;20139;-67
2023/08/29 13:17:04;;;;;;;2.35;1.50;;;;;;;;;;5094960;28;20052;-73
2023/08/29 13:19:34;;;;;;;3.42;1.50;;;;;;;;;;5075070;28;20067;-70
2023/08/29 13:22:01;;;;;;;3.67;1.58;;;;;;;;;;5093542;28;20482;-74
2023/08/29 13:24:28;;;;;;;3.30;1.33;;;;;;;;;;5088570;28;20772;-72
2023/08/29 13:26:54;;;;;;;3.15;1.70;;;;;;;;;;5090931;28;20035;-67
2023/08/29 13:29:21;;;;;;;2.15;1.40;;;;;;;;;;5088909;28;20079;-65
2023/08/29 13:31:49;;;;;;;3.25;1.50;;;;;;;;;;5093850;28;20048;-66
2023/08/29 13:34:16;;;;;;;2.22;1.40;;;;;;;;;;5090709;28;20055;-66
2023/08/29 13:36:43;;;;;;;4.55;1.60;;;;;;;;;;5092792;28;20415;-65
2023/08/29 13:39:09;;;;;;;2.65;1.58;;;;;;;;;;5090740;28;20532;-65
2023/08/29 13:41:36;;;;;;;7.25;1.55;;;;;;;;;;5074729;28;20058;-65
2023/08/29 13:44:04;;;;;;;1.65;1.20;;;;;;;;;;5092432;28;20051;-68
2023/08/29 13:46:30;;;;;;;3.55;1.52;;;;;;;;;;5092973;28;20608;-66
2023/08/29 13:48:57;;;;;;;3.03;1.70;;;;;;;;;;5094284;28;20044;-68
2023/08/29 13:51:23;;;;;;;2.85;1.65;;;;;;;;;;5086420;28;20050;-66
2023/08/29 13:53:50;;;;;;;4.75;1.73;;;;;;;;;;5093988;28;20132;-64
2023/08/29 13:56:16;;;;;;;3.97;1.42;;;;;;;;;;5082863;28;20070;-63
2023/08/29 13:58:43;;;;;;;4.80;2.25;;;;;;;;;;5099719;28;20516;-65
2023/08/29 14:01:12;;;;;;;3.40;1.85;;;;;;;;;;5091615;28;20044;-66
2023/08/29 14:03:38;;;;;;;4.13;1.70;;;;;;;;;;5077763;28;20139;-63
2023/08/29 14:06:05;;;;;;;3.30;1.88;;;;;;;;;;5099410;28;20130;-64
2023/08/29 14:08:31;;;;;;;2.80;1.40;;;;;;;;;;5101435;28;20132;-63
2023/08/29 14:10:59;;;;;;;2.53;1.70;;;;;;;;;;5093620;28;20036;-63
2023/08/29 14:13:26;;;;;;;3.10;1.70;;;;;;;;;;5088249;28;20052;-63
2023/08/29 14:16:02;;;;;;;4.07;1.75;;;;;;;;;;5084346;28;20131;-63
2023/08/29 14:18:29;;;;;;;3.88;1.70;;;;;;;;;;5102643;28;20043;-68
2023/08/29 14:20:57;;;;;;;3.22;1.65;;;;;;;;;;5094047;28;20063;-63
2023/08/29 14:23:24;;;;;;;2.40;1.58;;;;;;;;;;5106823;28;20090;-64
2023/08/29 14:25:50;;;;;;;7.15;1.88;;;;;;;;;;5080275;28;20071;-64
2023/08/29 14:28:16;;;;;;;5.43;1.88;;;;;;;;;;5075955;28;20040;-63
2023/08/29 14:30:43;;;;;;;2.67;1.55;;;;;;;;;;5078222;28;20062;-62
2023/08/29 14:33:10;;;;;;;3.58;1.85;;;;;;;;;;5069730;28;20485;-63
2023/08/29 14:35:39;;;;;;;5.05;2.00;;;;;;;;;;5073436;28;20040;-62
2023/08/29 14:38:05;;;;;;;8.68;2.92;;;;;;;;;;5074224;28;20127;-63
2023/08/29 14:40:32;;;;;;;20.70;3.67;;;;;;;;;;5082327;28;20380;-64
2023/08/29 14:42:59;;;;;;;4.63;2.83;;;;;;;;;;5070518;28;20044;-65
2023/08/29 14:45:25;;;;;;;13.68;3.80;;;;;;;;;;5078271;28;20067;-63